Time,TemperatureF,DewpointF,PressureIn,WindDirection,WindDirectionDegrees,WindSpeedMPH,WindSpeedGustMPH,Humidity,HourlyPrecipIn,Conditions,Clouds,dailyrainin,SoftwareType,DateUTC
2013-03-02 00:01:00,9.0,9.0,-100.00,South,180,3.0,4.0,99,-99.99,,,-99.99,,2013-03-02 06:01:00,
2013-03-02 00:10:00,9.0,9.0,-100.00,SW,225,4.0,4.0,99,-99.99,,,-99.99,,2013-03-02 06:10:00,
2013-03-02 00:32:00,9.0,9.0,-100.00,SW,225,4.0,4.0,99,-99.99,,,-99.99,,2013-03-02 06:32:00,
2013-03-02 00:42:00,9.0,9.0,-100.00,SW,225,4.0,4.0,99,-99.99,,,-99.99,,2013-03-02 06:42:00,
2013-03-02 00:52:00,9.0,9.0,-100.00,SW,225,4.0,4.0,99,-99.99,,,-99.99,,2013-03-02 06:52:00,
2013-03-02 01:01:00,9.0,9.0,-100.00,SW,225,4.0,4.0,99,-99.99,,,-99.99,,2013-03-02 07:01:00,
2013-03-02 01:32:00,8.0,7.0,-100.00,SSE,160,3.0,3.0,99,-99.99,,,-99.99,,2013-03-02 07:32:00,
2013-03-02 01:42:00,8.0,7.0,-100.00,SSE,160,3.0,3.0,99,-99.99,,,-99.99,,2013-03-02 07:42:00,
2013-03-02 01:52:00,8.0,7.0,-100.00,SSE,160,3.0,3.0,99,-99.99,,,-99.99,,2013-03-02 07:52:00,
2013-03-02 02:01:00,8.0,7.0,-100.00,SSE,160,3.0,3.0,99,-99.99,,,-99.99,,2013-03-02 08:01:00,
2013-03-02 02:32:00,7.0,6.0,-100.00,South,190,4.0,4.0,99,-99.99,,,-99.99,,2013-03-02 08:32:00,
2013-03-02 02:43:00,7.0,6.0,-100.00,South,190,4.0,4.0,99,-99.99,,,-99.99,,2013-03-02 08:43:00,
2013-03-02 02:52:00,7.0,6.0,-100.00,South,190,4.0,4.0,99,-99.99,,,-99.99,,2013-03-02 08:52:00,
2013-03-02 03:01:00,7.0,6.0,-100.00,South,190,4.0,4.0,99,-99.99,,,-99.99,,2013-03-02 09:01:00,
2013-03-02 03:32:00,11.0,11.0,-100.00,South,175,4.0,4.0,99,-99.99,,,-99.99,,2013-03-02 09:32:00,
2013-03-02 03:42:00,11.0,11.0,-100.00,South,175,4.0,4.0,99,-99.99,,,-99.99,,2013-03-02 09:42:00,
2013-03-02 03:52:00,11.0,11.0,-100.00,South,175,4.0,4.0,99,-99.99,,,-99.99,,2013-03-02 09:52:00,
2013-03-02 04:01:00,11.0,11.0,-100.00,South,175,4.0,4.0,99,-99.99,,,-99.99,,2013-03-02 10:01:00,
2013-03-02 04:32:00,10.0,10.0,-100.00,SSE,155,3.0,3.0,99,-99.99,,,-99.99,,2013-03-02 10:32:00,
2013-03-02 04:43:00,10.0,10.0,-100.00,SSE,155,3.0,3.0,99,-99.99,,,-99.99,,2013-03-02 10:43:00,
2013-03-02 04:52:00,10.0,10.0,-100.00,SSE,155,3.0,3.0,99,-99.99,,,-99.99,,2013-03-02 10:52:00,
2013-03-02 05:01:00,10.0,10.0,-100.00,SSE,155,3.0,3.0,99,-99.99,,,-99.99,,2013-03-02 11:01:00,
2013-03-02 05:32:00,12.0,12.0,-100.00,SE,130,6.0,7.0,99,-99.99,,,-99.99,,2013-03-02 11:32:00,
2013-03-02 05:42:00,12.0,12.0,-100.00,SE,130,6.0,7.0,99,-99.99,,,-99.99,,2013-03-02 11:42:00,
2013-03-02 05:52:00,12.0,12.0,-100.00,SE,130,6.0,7.0,99,-99.99,,,-99.99,,2013-03-02 11:52:00,
2013-03-02 06:02:00,12.0,12.0,-100.00,SE,130,6.0,7.0,99,-99.99,,,-99.99,,2013-03-02 12:02:00,
2013-03-02 06:33:00,9.0,9.0,-100.00,SE,145,6.0,6.0,99,-99.99,,,-99.99,,2013-03-02 12:33:00,
2013-03-02 06:43:00,9.0,9.0,-100.00,SE,145,6.0,6.0,99,-99.99,,,-99.99,,2013-03-02 12:43:00,
2013-03-02 06:53:00,9.0,9.0,-100.00,SE,145,6.0,6.0,99,-99.99,,,-99.99,,2013-03-02 12:53:00,
2013-03-02 07:01:00,9.0,9.0,-100.00,SE,145,6.0,6.0,99,-99.99,,,-99.99,,2013-03-02 13:01:00,
2013-03-02 07:11:00,10.0,9.0,-100.00,SE,140,6.0,7.0,99,-99.99,,,-99.99,,2013-03-02 13:11:00,
2013-03-02 07:32:00,10.0,9.0,-100.00,SE,140,6.0,7.0,99,-99.99,,,-99.99,,2013-03-02 13:32:00,
2013-03-02 07:42:00,10.0,9.0,-100.00,SE,140,6.0,7.0,99,-99.99,,,-99.99,,2013-03-02 13:42:00,
2013-03-02 07:52:00,10.0,9.0,-100.00,SE,140,6.0,7.0,99,-99.99,,,-99.99,,2013-03-02 13:52:00,
2013-03-02 08:01:00,10.0,9.0,-100.00,SE,140,6.0,7.0,99,-99.99,,,-99.99,,2013-03-02 14:01:00,
2013-03-02 08:10:00,10.0,10.0,-100.00,SSE,150,10.0,11.0,99,-99.99,,,-99.99,,2013-03-02 14:10:00,
2013-03-02 08:32:00,10.0,10.0,-100.00,SSE,150,10.0,11.0,99,-99.99,,,-99.99,,2013-03-02 14:32:00,
2013-03-02 08:42:00,10.0,10.0,-100.00,SSE,150,10.0,11.0,99,-99.99,,,-99.99,,2013-03-02 14:42:00,
2013-03-02 08:52:00,10.0,10.0,-100.00,SSE,150,10.0,11.0,99,-99.99,,,-99.99,,2013-03-02 14:52:00,
2013-03-02 09:02:00,10.0,10.0,-100.00,SSE,150,10.0,11.0,99,-99.99,,,-99.99,,2013-03-02 15:02:00,
2013-03-02 09:10:00,12.0,12.0,-100.00,SSE,150,10.0,11.0,99,-99.99,,,-99.99,,2013-03-02 15:10:00,
2013-03-02 09:32:00,12.0,12.0,-100.00,SSE,150,10.0,11.0,99,-99.99,,,-99.99,,2013-03-02 15:32:00,
2013-03-02 09:42:00,12.0,12.0,-100.00,SSE,150,10.0,11.0,99,-99.99,,,-99.99,,2013-03-02 15:42:00,
2013-03-02 09:52:00,12.0,12.0,-100.00,SSE,150,10.0,11.0,99,-99.99,,,-99.99,,2013-03-02 15:52:00,
2013-03-02 10:01:00,12.0,12.0,-100.00,SSE,150,10.0,11.0,99,-99.99,,,-99.99,,2013-03-02 16:01:00,
2013-03-02 10:10:00,16.0,16.0,-100.00,SSE,160,12.0,14.0,99,-99.99,,,-99.99,,2013-03-02 16:10:00,
2013-03-02 10:32:00,16.0,16.0,-100.00,SSE,160,12.0,14.0,99,-99.99,,,-99.99,,2013-03-02 16:32:00,
2013-03-02 10:42:00,16.0,16.0,-100.00,SSE,160,12.0,14.0,99,-99.99,,,-99.99,,2013-03-02 16:42:00,
2013-03-02 10:52:00,16.0,16.0,-100.00,SSE,160,12.0,14.0,99,-99.99,,,-99.99,,2013-03-02 16:52:00,
2013-03-02 11:01:00,16.0,16.0,-100.00,SSE,160,12.0,14.0,99,-99.99,,,-99.99,,2013-03-02 17:01:00,
2013-03-02 11:10:00,20.0,20.0,-100.00,SSE,165,18.0,20.0,99,-99.99,,,-99.99,,2013-03-02 17:10:00,
2013-03-02 11:32:00,20.0,20.0,-100.00,SSE,165,18.0,20.0,99,-99.99,,,-99.99,,2013-03-02 17:32:00,
2013-03-02 11:42:00,20.0,20.0,-100.00,SSE,165,18.0,20.0,99,-99.99,,,-99.99,,2013-03-02 17:42:00,
2013-03-02 11:52:00,20.0,20.0,-100.00,SSE,165,18.0,20.0,99,-99.99,,,-99.99,,2013-03-02 17:52:00,
2013-03-02 12:02:00,20.0,20.0,-100.00,SSE,165,18.0,20.0,99,-99.99,,,-99.99,,2013-03-02 18:02:00,
2013-03-02 12:32:00,22.0,21.0,-100.00,South,170,16.0,18.0,97,-99.99,,,-99.99,,2013-03-02 18:32:00,
2013-03-02 12:42:00,22.0,21.0,-100.00,South,170,16.0,18.0,97,-99.99,,,-99.99,,2013-03-02 18:42:00,
2013-03-02 12:52:00,22.0,21.0,-100.00,South,170,16.0,18.0,97,-99.99,,,-99.99,,2013-03-02 18:52:00,
2013-03-02 13:01:00,22.0,21.0,-100.00,South,170,16.0,18.0,97,-99.99,,,-99.99,,2013-03-02 19:01:00,
2013-03-02 13:32:00,23.0,22.0,-100.00,SSE,160,14.0,16.0,93,-99.99,,,-99.99,,2013-03-02 19:32:00,
2013-03-02 13:42:00,23.0,22.0,-100.00,SSE,160,14.0,16.0,93,-99.99,,,-99.99,,2013-03-02 19:42:00,
2013-03-02 13:52:00,23.0,22.0,-100.00,SSE,160,14.0,16.0,93,-99.99,,,-99.99,,2013-03-02 19:52:00,
2013-03-02 14:01:00,23.0,22.0,-100.00,SSE,160,14.0,16.0,93,-99.99,,,-99.99,,2013-03-02 20:01:00,
2013-03-02 15:32:00,24.0,22.0,-100.00,SSE,160,17.0,19.0,92,-99.99,,,-99.99,,2013-03-02 21:32:00,
2013-03-02 15:42:00,24.0,22.0,-100.00,SSE,160,17.0,19.0,92,-99.99,,,-99.99,,2013-03-02 21:42:00,
2013-03-02 15:52:00,24.0,22.0,-100.00,SSE,160,17.0,19.0,92,-99.99,,,-99.99,,2013-03-02 21:52:00,
2013-03-02 16:02:00,24.0,22.0,-100.00,SSE,160,17.0,19.0,92,-99.99,,,-99.99,,2013-03-02 22:02:00,
2013-03-02 16:10:00,24.0,22.0,-100.00,SSE,155,17.0,19.0,92,-99.99,,,-99.99,,2013-03-02 22:10:00,
2013-03-02 16:32:00,24.0,22.0,-100.00,SSE,155,17.0,19.0,92,-99.99,,,-99.99,,2013-03-02 22:32:00,
2013-03-02 16:42:00,24.0,22.0,-100.00,SSE,155,17.0,19.0,92,-99.99,,,-99.99,,2013-03-02 22:42:00,
2013-03-02 16:52:00,24.0,22.0,-100.00,SSE,155,17.0,19.0,92,-99.99,,,-99.99,,2013-03-02 22:52:00,
2013-03-02 17:01:00,24.0,22.0,-100.00,SSE,155,17.0,19.0,92,-99.99,,,-99.99,,2013-03-02 23:01:00,
2013-03-02 17:32:00,24.0,21.0,-100.00,SSE,165,21.0,24.0,91,-99.99,,,-99.99,,2013-03-02 23:32:00,
2013-03-02 17:42:00,24.0,21.0,-100.00,SSE,165,21.0,24.0,91,-99.99,,,-99.99,,2013-03-02 23:42:00,
2013-03-02 17:52:00,24.0,21.0,-100.00,SSE,165,21.0,24.0,91,-99.99,,,-99.99,,2013-03-02 23:52:00,
2013-03-02 18:02:00,24.0,21.0,-100.00,SSE,165,21.0,24.0,91,-99.99,,,-99.99,,2013-03-03 00:02:00,
2013-03-02 18:32:00,24.0,21.0,-100.00,SSE,165,14.0,17.0,89,-99.99,,,-99.99,,2013-03-03 00:32:00,
2013-03-02 18:42:00,24.0,21.0,-100.00,SSE,165,14.0,17.0,89,-99.99,,,-99.99,,2013-03-03 00:42:00,
2013-03-02 18:52:00,24.0,21.0,-100.00,SSE,165,14.0,17.0,89,-99.99,,,-99.99,,2013-03-03 00:52:00,
2013-03-02 19:01:00,24.0,21.0,-100.00,SSE,165,14.0,17.0,89,-99.99,,,-99.99,,2013-03-03 01:01:00,
2013-03-02 19:32:00,23.0,21.0,-100.00,SSE,160,14.0,16.0,92,-99.99,,,-99.99,,2013-03-03 01:32:00,
2013-03-02 19:42:00,23.0,21.0,-100.00,SSE,160,14.0,16.0,92,-99.99,,,-99.99,,2013-03-03 01:42:00,
2013-03-02 19:52:00,23.0,21.0,-100.00,SSE,160,14.0,16.0,92,-99.99,,,-99.99,,2013-03-03 01:52:00,
2013-03-02 20:01:00,23.0,21.0,-100.00,SSE,160,14.0,16.0,92,-99.99,,,-99.99,,2013-03-03 02:01:00,
2013-03-02 20:32:00,23.0,21.0,-100.00,SSE,165,11.0,12.0,92,-99.99,,,-99.99,,2013-03-03 02:32:00,
2013-03-02 20:42:00,23.0,21.0,-100.00,SSE,165,11.0,12.0,92,-99.99,,,-99.99,,2013-03-03 02:42:00,
2013-03-02 20:52:00,23.0,21.0,-100.00,SSE,165,11.0,12.0,92,-99.99,,,-99.99,,2013-03-03 02:52:00,
2013-03-02 21:01:00,23.0,21.0,-100.00,SSE,165,11.0,12.0,92,-99.99,,,-99.99,,2013-03-03 03:01:00,
2013-03-02 21:32:00,23.0,21.0,-100.00,South,175,11.0,13.0,94,-99.99,,,-99.99,,2013-03-03 03:32:00,
2013-03-02 21:42:00,23.0,21.0,-100.00,South,175,11.0,13.0,94,-99.99,,,-99.99,,2013-03-03 03:42:00,
2013-03-02 21:52:00,23.0,21.0,-100.00,South,175,11.0,13.0,94,-99.99,,,-99.99,,2013-03-03 03:52:00,
2013-03-02 22:01:00,23.0,21.0,-100.00,South,175,11.0,13.0,94,-99.99,,,-99.99,,2013-03-03 04:01:00,
2013-03-02 22:32:00,22.0,21.0,-100.00,South,185,10.0,12.0,95,-99.99,,,-99.99,,2013-03-03 04:32:00,
2013-03-02 22:42:00,22.0,21.0,-100.00,South,185,10.0,12.0,95,-99.99,,,-99.99,,2013-03-03 04:42:00,
2013-03-02 22:52:00,22.0,21.0,-100.00,South,185,10.0,12.0,95,-99.99,,,-99.99,,2013-03-03 04:52:00,
2013-03-02 23:02:00,22.0,21.0,-100.00,South,185,10.0,12.0,95,-99.99,,,-99.99,,2013-03-03 05:02:00,
2013-03-02 23:32:00,22.0,21.0,-100.00,South,190,8.0,9.0,96,-99.99,,,-99.99,,2013-03-03 05:32:00,
2013-03-02 23:42:00,22.0,21.0,-100.00,South,190,8.0,9.0,96,-99.99,,,-99.99,,2013-03-03 05:42:00,
2013-03-02 23:52:00,22.0,21.0,-100.00,South,190,8.0,9.0,96,-99.99,,,-99.99,,2013-03-03 05:52:00,